Time;durP1;ratioP1;P1;durP2;ratioP2;P2;SDS_P1;SDS_P2;PMS_P1;PMS_P2;Temp;Humidity;BMP_temperature;BMP_pressure;BME280_temperature;BME280_humidity;BME280_pressure;Samples;Min_cycle;Max_cycle;Signal;HPM_P1;HPM_P2
2021/05/29 00:02:25;;;;;;;8.50;5.90;;;;;;;9.96;74.03;96907.97;127604;1104;31626;-96
2021/05/29 00:04:55;;;;;;;7.73;5.80;;;;;;;10.01;74.13;96905.34;127460;1104;54158;-95
2021/05/29 00:07:25;;;;;;;8.18;5.20;;;;;;;10.02;73.91;96909.58;127486;1104;40685;-96
2021/05/29 00:09:55;;;;;;;8.35;5.40;;;;;;;10.04;74.01;96907.45;127521;1099;47042;-94
2021/05/29 00:12:25;;;;;;;9.53;5.85;;;;;;;10.06;74.07;96904.53;127585;1100;26232;-95
2021/05/29 00:14:55;;;;;;;8.40;5.83;;;;;;;10.06;74.30;96907.97;127536;1104;36097;-95
2021/05/29 00:17:25;;;;;;;9.70;6.33;;;;;;;10.09;73.98;96909.29;127552;1104;29097;-95
2021/05/29 00:19:56;;;;;;;8.40;6.33;;;;;;;10.12;74.06;96912.19;127465;1104;31455;-95
2021/05/29 00:22:25;;;;;;;;;;;;;;;10.13;74.35;96905.03;127630;1104;27033;-96
2021/05/29 00:24:55;;;;;;;9.03;6.65;;;;;;;10.15;74.71;96910.88;127619;1104;34478;-95
2021/05/29 00:27:25;;;;;;;8.98;6.70;;;;;;;10.15;74.87;96905.59;127557;1104;28754;-95
2021/05/29 00:29:55;;;;;;;8.87;6.73;;;;;;;10.16;74.80;96906.38;127488;1104;30613;-96
2021/05/29 00:32:24;;;;;;;10.18;6.25;;;;;;;10.17;74.80;96908.76;127447;1104;64532;-95
2021/05/29 00:34:55;;;;;;;9.80;6.03;;;;;;;10.18;74.97;96901.61;127478;1104;29063;-94
2021/05/29 00:37:25;;;;;;;8.88;6.00;;;;;;;10.21;75.18;96906.36;127477;1104;33023;-95
2021/05/29 00:39:55;;;;;;;8.35;5.63;;;;;;;10.25;74.71;96907.44;127439;1104;29376;-95
2021/05/29 00:42:26;;;;;;;9.38;5.75;;;;;;;10.27;74.82;96902.66;127491;1104;30469;-95
2021/05/29 00:44:57;;;;;;;;;;;;;;;10.28;74.84;96907.71;127534;1104;28086;-95
2021/05/29 00:47:28;;;;;;;10.18;6.10;;;;;;;10.28;74.75;96894.47;127468;1104;31313;-96
2021/05/29 00:50:00;;;;;;;8.65;6.05;;;;;;;10.30;74.90;96904.80;127509;1104;23132;-95
2021/05/29 00:52:30;;;;;;;7.58;5.33;;;;;;;10.28;74.85;96899.77;127565;1104;34464;-95
2021/05/29 00:55:02;;;;;;;8.38;5.83;;;;;;;10.27;74.76;96898.15;127503;1104;26250;-96
2021/05/29 00:57:33;;;;;;;7.88;5.45;;;;;;;10.28;74.88;96898.97;127441;1104;28432;-94
2021/05/29 01:00:03;;;;;;;;;;;;;;;10.26;74.75;96901.06;127487;1104;53570;-96
2021/05/29 01:02:33;;;;;;;8.05;5.73;;;;;;;10.27;74.58;96902.66;127541;1104;30071;-96
2021/05/29 01:05:05;;;;;;;9.35;6.08;;;;;;;10.27;74.58;96898.15;127508;1104;29952;-96
2021/05/29 01:07:35;;;;;;;9.93;6.53;;;;;;;10.27;74.93;96898.15;127471;1104;30423;-95
2021/05/29 01:10:08;;;;;;;9.38;5.88;;;;;;;10.27;74.86;96895.50;127519;1104;40087;-94
2021/05/29 01:12:38;;;;;;;8.33;6.28;;;;;;;10.27;74.96;96898.15;127536;1104;28606;-95
2021/05/29 01:15:10;;;;;;;9.38;6.28;;;;;;;10.28;74.94;96897.11;127481;1104;31411;-94
2021/05/29 01:17:40;;;;;;;10.05;6.10;;;;;;;10.31;75.02;96893.13;127485;1102;28324;-95
2021/05/29 01:20:12;;;;;;;12.53;6.95;;;;;;;10.32;74.69;96886.77;127502;1104;28510;-94
2021/05/29 01:22:46;;;;;;;12.45;8.60;;;;;;;10.35;75.17;96888.87;127573;1096;31146;-96
2021/05/29 01:25:23;;;;;;;9.80;6.65;;;;;;;10.33;75.63;96883.05;127490;1104;71791;-95
2021/05/29 01:28:01;;;;;;;9.13;6.20;;;;;;;10.31;75.63;96885.18;127545;1104;33944;-95
2021/05/29 01:30:34;;;;;;;;;;;;;;;10.29;76.00;96879.36;127488;1104;36596;-95
2021/05/29 01:33:06;;;;;;;11.40;7.23;;;;;;;10.28;75.90;96883.86;127474;1104;35441;-96
2021/05/29 01:35:37;;;;;;;9.93;6.80;;;;;;;10.27;75.73;96878.80;127573;1096;32448;-96
2021/05/29 01:38:07;;;;;;;9.07;6.70;;;;;;;10.29;76.00;96884.66;127527;1096;28606;-96
2021/05/29 01:40:37;;;;;;;9.83;7.05;;;;;;;10.28;76.00;96885.72;127540;1101;35306;-96
2021/05/29 01:43:07;;;;;;;;;;;;;;;10.26;76.15;96887.82;127586;1096;66029;-95
2021/05/29 01:45:39;;;;;;;9.75;6.63;;;;;;;10.27;76.12;96887.55;127519;1104;43502;-96
2021/05/29 01:48:10;;;;;;;10.70;7.60;;;;;;;10.29;76.07;96882.80;127484;1097;30320;-95
2021/05/29 01:50:47;;;;;;;9.58;6.98;;;;;;;10.34;76.14;96889.94;127578;1104;30911;-96
2021/05/29 01:53:20;;;;;;;11.43;7.45;;;;;;;10.42;76.10;96880.65;127656;1101;37996;-96
2021/05/29 01:55:50;;;;;;;11.48;7.35;;;;;;;10.40;76.50;96886.19;127663;1104;30219;-96
2021/05/29 01:58:20;;;;;;;12.20;7.80;;;;;;;10.36;76.81;96871.91;127557;1104;37833;-95
2021/05/29 02:00:50;;;;;;;11.20;8.10;;;;;;;10.30;77.22;96883.59;127726;1101;32053;-96
2021/05/29 02:03:20;;;;;;;11.78;8.20;;;;;;;10.29;76.73;96882.01;127657;1104;33758;-96
2021/05/29 02:05:50;;;;;;;12.20;8.23;;;;;;;10.34;77.03;96871.38;127647;1104;37223;-96
2021/05/29 02:08:21;;;;;;;11.40;7.88;;;;;;;10.36;76.65;96878.00;127718;1104;27914;-95
2021/05/29 02:10:52;;;;;;;11.58;8.38;;;;;;;10.38;76.72;96875.07;127763;1104;35265;-95
2021/05/29 02:13:28;;;;;;;7.45;5.63;;;;;;;10.44;77.00;96874.01;127681;1104;58103;-95
2021/05/29 02:15:59;;;;;;;9.10;5.98;;;;;;;10.42;77.00;96878.79;127596;1096;39636;-95
2021/05/29 02:18:30;;;;;;;11.00;7.05;;;;;;;10.34;76.79;96871.38;127559;1104;36193;-96
2021/05/29 02:21:01;;;;;;;;;;;;;;;10.32;77.23;96868.22;127681;1104;34243;-96
2021/05/29 02:23:34;;;;;;;12.53;6.88;;;;;;;10.24;77.23;96874.84;127738;1104;34009;-96
2021/05/29 02:26:11;;;;;;;10.55;7.18;;;;;;;10.16;77.52;96864.78;127671;1096;34996;-96
2021/05/29 02:28:43;;;;;;;10.00;7.08;;;;;;;10.17;77.65;96876.17;127604;1104;61812;-96
2021/05/29 02:31:14;;;;;;;8.85;6.20;;;;;;;10.24;77.57;96868.75;127644;1096;39457;-95
2021/05/29 02:33:45;;;;;;;10.38;7.15;;;;;;;10.23;77.38;96865.31;127749;1102;34804;-96
2021/05/29 02:36:15;;;;;;;11.43;7.93;;;;;;;10.29;77.77;96861.60;127760;1104;50323;-96
2021/05/29 02:38:45;;;;;;;10.88;7.98;;;;;;;10.27;77.63;96862.91;127719;1104;45488;-96
2021/05/29 02:41:18;;;;;;;9.65;7.70;;;;;;;10.31;77.85;96863.98;127645;1104;43067;-96
2021/05/29 02:43:48;;;;;;;10.43;7.53;;;;;;;10.39;78.15;96864.20;127873;1104;34215;-96
2021/05/29 02:46:18;;;;;;;12.33;7.37;;;;;;;10.42;78.04;96862.89;127893;1104;43605;-96
2021/05/29 02:48:48;;;;;;;10.35;7.63;;;;;;;10.46;78.43;96858.63;127781;1104;42022;-96
2021/05/29 02:51:18;;;;;;;10.83;8.05;;;;;;;10.50;78.51;96857.01;127743;1096;42737;-96
2021/05/29 02:53:48;;;;;;;13.10;9.88;;;;;;;10.53;78.25;96853.02;125837;1096;2125384;-95
2021/05/29 02:56:19;;;;;;;15.38;10.45;;;;;;;10.48;77.89;96847.75;127636;1104;34647;-95
2021/05/29 02:58:49;;;;;;;14.33;10.48;;;;;;;10.44;78.08;96857.31;127764;1097;37698;-95
2021/05/29 03:01:19;;;;;;;14.58;11.13;;;;;;;10.40;77.82;96859.69;127870;1102;33645;-96
2021/05/29 03:03:49;;;;;;;17.90;11.98;;;;;;;10.36;78.16;96853.35;127651;1104;32923;-96
2021/05/29 03:06:19;;;;;;;18.78;13.10;;;;;;;10.30;78.03;96855.23;127724;1104;37342;-96
2021/05/29 03:08:49;;;;;;;17.83;12.33;;;;;;;10.30;78.21;96854.45;127628;1104;33536;-96
2021/05/29 03:11:19;;;;;;;17.48;11.30;;;;;;;10.32;78.36;96855.75;126219;1104;1703604;-96
2021/05/29 03:13:49;;;;;;;17.03;11.75;;;;;;;10.33;78.27;96849.39;127714;1104;43041;-95
2021/05/29 03:16:20;;;;;;;18.30;12.10;;;;;;;10.33;78.53;96854.69;127719;1104;46801;-95
2021/05/29 03:18:50;;;;;;;16.47;12.73;;;;;;;10.39;78.43;96853.59;127694;1104;56251;-96
2021/05/29 03:21:20;;;;;;;16.58;12.08;;;;;;;10.39;78.64;96855.45;127731;1104;37176;-96
2021/05/29 03:23:52;;;;;;;14.90;11.03;;;;;;;10.44;78.72;96852.02;127793;1096;35546;-96
2021/05/29 03:26:22;;;;;;;12.45;9.33;;;;;;;10.51;78.78;96855.16;127745;1104;37929;-95
2021/05/29 03:28:52;;;;;;;;;;;;;;;10.58;79.05;96845.86;127648;1104;38852;-93
2021/05/29 03:31:22;;;;;;;12.58;9.00;;;;;;;10.61;79.12;96845.30;127862;1104;37023;-96
2021/05/29 03:33:53;;;;;;;15.70;11.03;;;;;;;10.62;78.88;96851.41;127776;1096;46757;-96
2021/05/29 03:36:23;;;;;;;17.75;13.60;;;;;;;10.52;78.46;96849.58;127781;1104;45797;-96
2021/05/29 03:38:53;;;;;;;20.20;13.95;;;;;;;10.48;78.59;96856.49;127538;1104;49462;-94
2021/05/29 03:41:23;;;;;;;19.65;14.93;;;;;;;10.39;78.44;96856.25;127669;1104;31234;-96
2021/05/29 03:43:53;;;;;;;13.48;8.93;;;;;;;10.38;78.84;96851.22;127577;1104;34310;-96
2021/05/29 03:46:23;;;;;;;13.08;8.98;;;;;;;10.40;79.47;96849.88;127659;1104;30174;-94
2021/05/29 03:48:53;;;;;;;13.55;10.50;;;;;;;10.43;79.69;96847.78;127606;1104;35894;-96
2021/05/29 03:51:23;;;;;;;11.23;8.68;;;;;;;10.41;79.89;96850.67;127536;1104;28006;-94
2021/05/29 03:53:53;;;;;;;12.25;8.68;;;;;;;10.42;80.08;96852.29;127482;1104;81451;-95
2021/05/29 03:56:23;;;;;;;12.15;9.15;;;;;;;10.38;80.07;96854.66;127543;1104;31807;-94
2021/05/29 03:58:52;;;;;;;;;;;;;;;10.37;79.88;96849.64;127756;1104;32956;-96
2021/05/29 04:01:22;;;;;;;16.55;12.10;;;;;;;10.38;79.88;96846.71;127626;1104;41018;-96
2021/05/29 04:04:07;;;;;;;14.30;10.90;;;;;;;10.40;80.07;96852.53;127490;1104;57186;-95
2021/05/29 04:06:38;;;;;;;16.38;11.83;;;;;;;10.44;80.14;96844.06;127712;1104;38079;-96
2021/05/29 04:09:10;;;;;;;15.85;10.78;;;;;;;10.46;80.05;96848.02;127727;1104;36601;-96
2021/05/29 04:11:40;;;;;;;12.83;9.33;;;;;;;10.48;80.16;96845.89;127678;1104;89035;-96
2021/05/29 04:14:10;;;;;;;13.25;9.98;;;;;;;10.49;79.96;96847.48;127698;1104;41549;-96
2021/05/29 04:16:40;;;;;;;15.05;10.25;;;;;;;10.42;79.95;96851.50;127656;1097;51251;-96
2021/05/29 04:19:10;;;;;;;13.15;9.50;;;;;;;10.42;80.50;96852.29;127742;1104;52982;-94
2021/05/29 04:21:41;;;;;;;17.35;13.18;;;;;;;10.34;80.15;96847.53;127699;1104;48161;-96
2021/05/29 04:24:11;;;;;;;12.85;9.43;;;;;;;10.39;80.29;96855.45;127801;1104;43154;-96
2021/05/29 04:26:49;;;;;;;17.80;14.18;;;;;;;10.33;80.29;96844.09;127860;1104;51090;-96
2021/05/29 04:29:21;;;;;;;19.60;14.45;;;;;;;10.29;80.48;96847.56;128010;1104;37572;-96
2021/05/29 04:31:52;;;;;;;20.78;15.55;;;;;;;10.22;80.77;96842.53;127934;1104;57149;-96
2021/05/29 04:34:23;;;;;;;24.73;18.23;;;;;;;10.16;81.57;96848.09;127783;1104;50049;-96
2021/05/29 04:36:53;;;;;;;22.98;17.28;;;;;;;10.13;81.45;96841.45;123606;1104;2496825;-95
2021/05/29 04:39:41;;;;;;;24.53;17.60;;;;;;;10.15;81.91;96831.41;127734;1104;42033;-96
2021/05/29 04:42:16;;;;;;;26.83;19.35;;;;;;;10.14;81.33;96840.42;127805;1096;38556;-96
2021/05/29 04:44:45;;;;;;;;;;;;;;;10.17;81.78;96839.88;127849;1104;32410;-96
2021/05/29 04:47:15;;;;;;;26.78;19.83;;;;;;;10.09;82.12;96843.86;127754;1097;35484;-96
2021/05/29 04:49:46;;;;;;;26.15;17.93;;;;;;;10.02;81.93;96843.36;127803;1104;58758;-96
2021/05/29 04:52:16;;;;;;;28.63;20.50;;;;;;;10.03;82.01;96844.94;127779;1104;53807;-96
2021/05/29 04:54:46;;;;;;;24.78;18.53;;;;;;;10.10;82.01;96848.09;125381;1103;2594663;-96
2021/05/29 04:57:16;;;;;;;28.43;20.68;;;;;;;10.11;82.32;96857.63;127832;1103;31569;-95
2021/05/29 04:59:48;;;;;;;26.58;18.68;;;;;;;10.16;82.27;96856.05;127791;1104;64505;-96
2021/05/29 05:02:18;;;;;;;19.25;14.38;;;;;;;10.15;82.02;96863.20;127844;1104;33693;-95
2021/05/29 05:04:48;;;;;;;13.60;11.08;;;;;;;10.09;83.06;96867.70;127612;1104;42868;-94
2021/05/29 05:07:18;;;;;;;11.55;8.60;;;;;;;9.98;82.66;96875.92;127508;1104;32171;-93
2021/05/29 05:09:48;;;;;;;8.23;6.03;;;;;;;9.92;82.32;96867.20;127549;1104;25341;-96
2021/05/29 05:12:18;;;;;;;6.53;4.90;;;;;;;9.81;82.41;96860.33;127567;1104;26880;-93
2021/05/29 05:14:48;;;;;;;5.90;4.60;;;;;;;9.73;82.61;96866.97;127513;1096;28839;-95
2021/05/29 05:17:18;;;;;;;7.47;5.77;;;;;;;9.70;82.63;96883.36;127515;1104;47765;-95
2021/05/29 05:19:48;;;;;;;8.70;5.23;;;;;;;9.74;82.97;96878.35;127454;1104;51843;-93
2021/05/29 05:22:18;;;;;;;5.10;3.50;;;;;;;9.73;82.73;96874.12;127487;1104;33246;-94
2021/05/29 05:24:48;;;;;;;6.18;3.88;;;;;;;9.73;82.95;96871.47;127492;1104;22847;-94
2021/05/29 05:27:18;;;;;;;5.70;3.90;;;;;;;9.75;82.86;96888.67;127484;1104;27542;-92
2021/05/29 05:29:48;;;;;;;4.35;3.53;;;;;;;9.78;82.84;96884.70;127530;1104;24450;-91
2021/05/29 05:32:18;;;;;;;6.63;4.58;;;;;;;9.83;83.15;96888.13;127709;1101;24061;-93
2021/05/29 05:34:48;;;;;;;8.05;5.03;;;;;;;9.85;82.98;96887.85;127496;1104;24295;-93
2021/05/29 05:37:18;;;;;;;8.70;5.25;;;;;;;9.84;83.03;96899.50;127479;1104;22791;-93
2021/05/29 05:39:48;;;;;;;6.50;4.70;;;;;;;9.80;82.75;96903.75;127544;1097;26226;-95
2021/05/29 05:42:19;;;;;;;8.58;5.33;;;;;;;9.70;82.67;96909.04;127514;1096;51945;-94
2021/05/29 05:44:49;;;;;;;6.83;4.40;;;;;;;9.58;82.29;96905.89;127506;1104;28306;-95
2021/05/29 05:47:19;;;;;;;6.20;4.70;;;;;;;9.51;82.54;96914.86;127542;1096;26574;-96
2021/05/29 05:49:49;;;;;;;5.98;4.40;;;;;;;9.47;82.50;96919.10;127510;1100;27037;-95
2021/05/29 05:52:20;;;;;;;6.40;4.18;;;;;;;9.43;82.48;96915.40;127561;1104;27961;-94
2021/05/29 05:54:50;;;;;;;5.93;4.33;;;;;;;9.39;82.59;96916.96;127508;1104;22802;-94
2021/05/29 05:57:20;;;;;;;5.20;4.10;;;;;;;9.40;82.71;96930.98;127531;1104;24470;-94
2021/05/29 05:59:50;;;;;;;5.55;4.25;;;;;;;9.44;82.83;96929.42;127954;1096;26238;-93
2021/05/29 06:02:20;;;;;;;5.75;3.93;;;;;;;9.49;82.97;96929.42;127953;1101;23655;-93
2021/05/29 06:04:50;;;;;;;4.43;3.15;;;;;;;9.51;82.89;96928.09;127941;1101;22783;-94
2021/05/29 06:07:20;;;;;;;7.45;3.90;;;;;;;9.50;82.69;96931.01;127892;1101;46800;-94
2021/05/29 06:09:50;;;;;;;4.10;3.08;;;;;;;9.44;82.35;96934.72;127976;1096;35714;-95
2021/05/29 06:12:23;;;;;;;4.28;3.20;;;;;;;9.29;82.74;96927.55;128039;1101;29566;-91
2021/05/29 06:18:44;;;;;;;3.13;2.58;;;;;;;9.12;82.46;96937.53;128054;1101;38952;-94
2021/05/29 06:21:17;;;;;;;3.25;2.50;;;;;;;9.11;82.49;96936.73;127838;1101;35402;-94
2021/05/29 06:23:47;;;;;;;3.43;2.55;;;;;;;9.12;82.21;96945.47;127984;1101;37040;-94
2021/05/29 06:26:17;;;;;;;4.20;2.58;;;;;;;9.17;82.33;96940.22;128035;1101;40403;-95
2021/05/29 06:28:48;;;;;;;3.58;2.63;;;;;;;9.14;82.31;96938.86;127886;1101;30442;-94
2021/05/29 06:31:18;;;;;;;2.10;1.90;;;;;;;9.19;82.43;96951.33;127886;1096;72893;-92
2021/05/29 06:33:49;;;;;;;1.98;1.68;;;;;;;9.24;82.43;96948.68;127904;1100;59138;-93
2021/05/29 06:36:19;;;;;;;3.43;1.75;;;;;;;9.19;81.68;96946.83;127898;1101;29629;-93
2021/05/29 06:38:49;;;;;;;2.10;1.60;;;;;;;9.20;81.05;96951.06;127905;1096;26286;-92
2021/05/29 06:41:20;;;;;;;1.88;1.15;;;;;;;9.18;81.45;96947.09;127998;1101;33269;-94
2021/05/29 06:43:50;;;;;;;2.70;1.73;;;;;;;9.07;81.43;96953.40;128009;1101;28196;-93
2021/05/29 06:46:20;;;;;;;2.70;1.63;;;;;;;9.01;81.72;96955.25;127890;1101;37387;-94
2021/05/29 06:48:52;;;;;;;2.50;1.85;;;;;;;8.97;81.65;96961.29;127980;1101;23734;-94
2021/05/29 06:51:32;;;;;;;4.13;2.50;;;;;;;8.90;82.24;96953.61;127948;1101;31425;-94
2021/05/29 06:54:06;;;;;;;4.08;2.50;;;;;;;8.91;82.80;96961.28;127972;1101;31166;-94
2021/05/29 06:59:29;;;;;;;4.43;2.20;;;;;;;8.98;83.24;96952.30;127826;1102;70534;-94
2021/05/29 07:01:59;;;;;;;2.80;2.25;;;;;;;9.05;83.55;96958.16;127871;1101;63573;-95
2021/05/29 07:04:29;;;;;;;4.80;2.60;;;;;;;9.05;83.41;96956.30;127841;1101;98316;-93
2021/05/29 07:07:01;;;;;;;4.90;2.95;;;;;;;9.05;84.12;96944.94;127755;1101;37343;-94
2021/05/29 07:09:31;;;;;;;3.55;2.80;;;;;;;9.06;84.33;96954.45;127996;1101;34391;-96
2021/05/29 07:12:02;;;;;;;3.90;2.63;;;;;;;9.11;83.92;96952.61;127985;1101;32247;-94
2021/05/29 07:14:31;;;;;;;;;;;;;;;9.17;83.70;96948.15;127971;1096;26226;-95
2021/05/29 07:17:03;;;;;;;5.23;3.38;;;;;;;9.23;84.29;96949.73;127902;1101;45950;-92
2021/05/29 07:19:33;;;;;;;4.18;3.50;;;;;;;9.19;84.65;96948.68;127149;1101;1261773;-93
2021/05/29 07:22:04;;;;;;;4.83;3.20;;;;;;;9.24;84.51;96956.63;128284;1097;36760;-95
2021/05/29 07:24:35;;;;;;;3.90;2.70;;;;;;;9.26;84.44;96957.15;128047;1101;62399;-96
2021/05/29 07:27:06;;;;;;;4.48;3.00;;;;;;;9.30;84.68;96947.66;127971;1101;26619;-95
2021/05/29 07:29:35;;;;;;;;;;;;;;;9.24;84.30;96953.97;127992;1101;28413;-96
2021/05/29 07:32:06;;;;;;;4.25;3.33;;;;;;;9.21;84.57;96949.21;127928;1101;31676;-95
2021/05/29 07:34:36;;;;;;;4.25;3.30;;;;;;;9.21;84.46;96960.58;127957;1101;26856;-95
2021/05/29 07:37:08;;;;;;;3.55;2.75;;;;;;;9.23;85.01;96958.47;127974;1101;29516;-94
2021/05/29 07:39:38;;;;;;;6.23;3.73;;;;;;;9.20;85.50;96952.91;127973;1101;30155;-95
2021/05/29 07:42:09;;;;;;;5.17;3.27;;;;;;;9.18;85.44;96965.61;127876;1101;25769;-94
2021/05/29 07:44:39;;;;;;;5.43;3.25;;;;;;;9.14;85.18;96964.52;127826;1101;33066;-96
2021/05/29 07:47:09;;;;;;;5.63;3.57;;;;;;;9.06;84.93;96965.03;127833;1101;35703;-95
2021/05/29 07:49:39;;;;;;;4.25;3.68;;;;;;;9.02;84.98;96962.12;127875;1101;61468;-93
2021/05/29 07:52:09;;;;;;;5.63;3.73;;;;;;;9.04;84.76;96975.08;127947;1101;28396;-91
2021/05/29 07:54:39;;;;;;;7.13;4.03;;;;;;;8.97;84.97;96964.73;127870;1101;32072;-93
2021/05/29 07:57:10;;;;;;;5.67;4.00;;;;;;;8.98;85.37;96968.16;127934;1101;28148;-93
2021/05/29 07:59:42;;;;;;;5.80;4.03;;;;;;;8.93;85.57;96975.03;127817;1096;56152;-92
2021/05/29 08:02:12;;;;;;;6.05;3.85;;;;;;;8.94;85.06;96970.53;127827;1101;27368;-92
2021/05/29 08:04:42;;;;;;;5.28;3.93;;;;;;;8.96;85.36;96967.63;127809;1101;30670;-92
2021/05/29 08:07:12;;;;;;;6.70;4.10;;;;;;;9.02;85.75;96971.91;127799;1096;33336;-92
2021/05/29 08:09:43;;;;;;;5.88;4.25;;;;;;;9.03;85.65;96984.87;127683;1101;41330;-92
2021/05/29 08:12:13;;;;;;;5.80;3.88;;;;;;;9.05;85.65;96976.67;127849;1101;29876;-92
2021/05/29 08:14:44;;;;;;;4.55;4.05;;;;;;;9.13;85.22;96976.16;127765;1096;40585;-92
2021/05/29 08:17:14;;;;;;;5.80;3.83;;;;;;;9.29;85.53;96972.52;127950;1101;57635;-94
2021/05/29 08:19:45;;;;;;;4.65;3.68;;;;;;;9.39;85.17;96977.03;127809;1101;35035;-91
2021/05/29 08:22:15;;;;;;;6.13;4.10;;;;;;;9.25;85.11;96978.58;127894;1095;28701;-92
2021/05/29 08:24:46;;;;;;;6.13;3.93;;;;;;;9.15;85.96;96972.22;127929;1095;25752;-93
2021/05/29 08:27:16;;;;;;;6.93;4.10;;;;;;;9.11;85.97;96975.63;127974;1101;24503;-91
2021/05/29 08:29:46;;;;;;;4.83;3.58;;;;;;;9.04;86.29;96978.52;127945;1101;26074;-94
2021/05/29 08:32:16;;;;;;;7.20;4.05;;;;;;;9.03;86.83;96973.49;127957;1101;24834;-92
2021/05/29 08:34:46;;;;;;;4.93;3.68;;;;;;;9.01;86.42;96986.16;127962;1097;26211;-92
2021/05/29 08:37:16;;;;;;;5.00;3.83;;;;;;;9.08;86.97;96982.23;128008;1101;29635;-93
2021/05/29 08:39:46;;;;;;;6.65;4.38;;;;;;;9.15;87.05;96982.80;127921;1096;58775;-93
2021/05/29 08:42:17;;;;;;;5.18;3.35;;;;;;;9.21;86.53;96983.59;127941;1100;24464;-93
2021/05/29 08:44:46;;;;;;;5.13;3.60;;;;;;;9.27;86.52;96979.90;127981;1101;25044;-92
2021/05/29 08:47:19;;;;;;;4.95;3.43;;;;;;;9.29;86.36;96977.81;127949;1101;26790;-94
2021/05/29 08:49:49;;;;;;;3.90;3.23;;;;;;;9.36;86.03;96982.84;127980;1101;26289;-95
2021/05/29 08:52:19;;;;;;;4.80;3.43;;;;;;;9.50;86.20;96976.80;128094;1101;29086;-95
2021/05/29 08:54:50;;;;;;;3.63;3.23;;;;;;;9.60;85.78;96972.59;128131;1101;43358;-96
2021/05/29 08:57:22;;;;;;;6.90;3.60;;;;;;;9.65;84.95;96975.23;128197;1101;32512;-96
2021/05/29 08:59:52;;;;;;;3.90;3.00;;;;;;;9.65;84.86;96981.31;127972;1101;37577;-94
2021/05/29 09:02:22;;;;;;;5.75;2.95;;;;;;;9.70;84.67;96972.58;127916;1101;49538;-93
2021/05/29 09:05:07;;;;;;;3.95;2.98;;;;;;;9.70;83.62;96978.66;127923;1101;51116;-91
2021/05/29 09:07:37;;;;;;;4.03;2.98;;;;;;;9.69;84.08;96973.64;127926;1097;35613;-95
2021/05/29 09:10:29;;;;;;;3.70;2.88;;;;;;;9.72;83.42;96975.78;125814;1101;2578260;-94
2021/05/29 09:13:11;;;;;;;5.48;3.00;;;;;;;9.74;83.26;96973.66;128305;1101;42428;-96
2021/05/29 09:15:54;;;;;;;5.95;3.15;;;;;;;9.87;84.15;96969.70;126366;1101;2445396;-96
2021/05/29 09:18:40;;;;;;;3.73;2.55;;;;;;;9.95;83.64;96964.66;128100;1101;44642;-95
2021/05/29 09:21:29;;;;;;;3.88;2.80;;;;;;;10.02;82.48;96967.84;128041;1101;30583;-96
2021/05/29 09:24:03;;;;;;;3.15;2.15;;;;;;;10.10;81.96;96966.50;125471;1101;2848985;-96
2021/05/29 09:26:45;;;;;;;2.93;2.30;;;;;;;10.24;82.14;96967.58;127947;1101;38031;-96
2021/05/29 09:29:20;;;;;;;2.78;2.10;;;;;;;10.32;80.51;96967.05;127853;1101;34057;-95
2021/05/29 09:31:59;;;;;;;2.55;2.18;;;;;;;10.46;80.98;96969.95;128024;1101;30868;-95
2021/05/29 09:34:40;;;;;;;3.90;1.90;;;;;;;10.60;79.92;96968.33;128048;1101;32857;-96
2021/05/29 09:37:12;;;;;;;3.08;2.00;;;;;;;10.64;78.19;96971.23;127950;1101;36208;-96
2021/05/29 09:39:45;;;;;;;3.80;1.70;;;;;;;10.60;76.86;96968.33;128000;1101;29058;-95
2021/05/29 09:42:18;;;;;;;2.80;2.20;;;;;;;10.61;77.09;96967.27;127880;1101;30204;-94
2021/05/29 09:44:49;;;;;;;2.35;1.88;;;;;;;10.69;77.27;96958.73;128046;1101;35713;-96
2021/05/29 09:47:45;;;;;;;2.53;1.68;;;;;;;10.76;76.43;96952.38;128006;1101;43650;-94
2021/05/29 09:50:17;;;;;;;4.18;2.45;;;;;;;10.91;77.33;96955.77;127939;1096;27843;-92
2021/05/29 09:52:48;;;;;;;2.45;2.05;;;;;;;10.99;76.23;96960.52;127898;1096;35101;-94
2021/05/29 09:55:18;;;;;;;2.88;1.85;;;;;;;11.06;75.91;96956.77;127911;1101;27035;-95
2021/05/29 09:57:56;;;;;;;2.88;1.93;;;;;;;11.20;75.25;96953.24;128068;1101;36319;-96
2021/05/29 10:00:42;;;;;;;2.98;1.80;;;;;;;11.48;76.09;96950.97;128085;1101;33714;-96
2021/05/29 10:03:13;;;;;;;2.70;2.10;;;;;;;11.76;75.16;96955.55;128129;1101;35830;-96
2021/05/29 10:05:48;;;;;;;3.25;2.15;;;;;;;11.85;75.67;96950.48;127926;1095;33197;-96
2021/05/29 10:08:18;;;;;;;3.13;2.35;;;;;;;12.12;75.81;96952.66;128022;1101;32661;-96
2021/05/29 10:10:50;;;;;;;4.38;2.40;;;;;;;12.34;75.14;96947.66;128006;1101;46101;-95
2021/05/29 10:13:20;;;;;;;3.48;2.83;;;;;;;12.48;75.99;96945.91;127913;1101;61051;-95
2021/05/29 10:22:10;;;;;;;4.05;2.20;;;;;;;12.31;72.33;96948.22;127928;1090;29332;-95
2021/05/29 10:24:40;;;;;;;3.48;2.00;;;;;;;12.27;73.18;96949.86;127880;1101;31052;-94
2021/05/29 10:27:13;;;;;;;3.95;2.15;;;;;;;12.58;73.92;96944.23;127875;1101;27055;-94
2021/05/29 10:29:44;;;;;;;3.88;2.58;;;;;;;12.98;74.05;96941.11;127474;1102;31155;-94
2021/05/29 10:32:15;;;;;;;;;;;;;;;13.15;71.17;96937.97;127501;1101;26565;-92
2021/05/29 10:34:55;;;;;;;;;;;;;;;13.08;71.51;96932.98;127471;1101;53170;-92
2021/05/29 10:37:32;;;;;;;2.58;2.25;;;;;;;13.04;70.76;96931.98;127948;1101;27518;-93
2021/05/29 10:40:21;;;;;;;3.58;2.25;;;;;;;13.08;69.16;96932.98;128129;1096;26245;-93
2021/05/29 10:43:08;;;;;;;3.73;2.50;;;;;;;12.88;69.32;96927.92;127940;1096;25692;-94
2021/05/29 10:45:40;;;;;;;3.75;2.65;;;;;;;13.00;68.57;96932.84;128336;1096;26885;-94
2021/05/29 10:48:15;;;;;;;3.20;2.55;;;;;;;13.29;70.79;96927.44;127810;1101;22756;-94
2021/05/29 10:51:00;;;;;;;3.13;2.60;;;;;;;13.65;69.34;96925.03;127812;1101;29187;-93
2021/05/29 10:53:42;;;;;;;4.48;2.93;;;;;;;13.93;70.35;96925.92;127853;1101;23178;-94
2021/05/29 10:56:35;;;;;;;2.53;2.20;;;;;;;14.37;69.07;96927.34;127871;1101;22760;-94
2021/05/29 10:59:12;;;;;;;3.55;2.30;;;;;;;14.57;67.75;96923.53;127835;1095;33802;-93
2021/05/29 11:02:04;;;;;;;3.85;2.53;;;;;;;14.74;67.01;96913.84;127839;1101;22756;-93
2021/05/29 11:04:35;;;;;;;4.08;2.40;;;;;;;14.88;65.58;96918.38;127823;1101;25251;-96
2021/05/29 11:07:21;;;;;;;;;;;;;;;14.65;64.29;96910.30;127858;1101;26399;-95
2021/05/29 11:09:54;;;;;;;3.90;2.53;;;;;;;14.32;64.08;96916.74;127913;1101;23747;-94
2021/05/29 11:12:53;;;;;;;3.15;2.48;;;;;;;14.17;62.63;96926.59;127878;1101;24903;-94
2021/05/29 11:15:55;;;;;;;3.57;2.30;;;;;;;13.96;63.55;96930.70;127819;1101;30475;-93
2021/05/29 11:18:25;;;;;;;2.65;2.00;;;;;;;14.11;63.60;96925.11;127845;1101;25439;-95
2021/05/29 11:21:10;;;;;;;3.30;1.78;;;;;;;14.09;63.08;96929.16;127832;1101;31214;-95
2021/05/29 11:23:40;;;;;;;2.18;1.78;;;;;;;14.32;61.10;96922.87;127901;1101;30447;-92
2021/05/29 11:26:10;;;;;;;3.38;2.03;;;;;;;14.25;61.75;96920.59;127858;1096;33204;-95
2021/05/29 11:28:42;;;;;;;4.15;2.95;;;;;;;14.19;61.68;96918.30;127882;1101;36157;-95
2021/05/29 11:31:12;;;;;;;4.15;2.98;;;;;;;14.01;62.79;96919.16;127883;1101;37913;-95
2021/05/29 11:33:55;;;;;;;3.93;2.95;;;;;;;13.96;62.05;96914.70;127863;1101;29137;-95
2021/05/29 11:36:32;;;;;;;3.43;2.45;;;;;;;13.86;62.36;96914.86;127909;1097;38077;-95
2021/05/29 11:39:11;;;;;;;4.15;3.00;;;;;;;13.68;62.46;96905.83;127909;1096;29283;-95
2021/05/29 11:41:43;;;;;;;5.20;2.85;;;;;;;13.65;63.80;96909.05;127867;1096;28359;-94
2021/05/29 11:44:25;;;;;;;4.83;2.85;;;;;;;13.66;64.10;96898.13;127868;1096;27531;-94
2021/05/29 11:46:55;;;;;;;4.53;3.20;;;;;;;13.48;63.24;96909.58;127898;1101;31037;-94
2021/05/29 11:49:37;;;;;;;4.55;3.00;;;;;;;13.43;64.33;96900.88;127859;1101;29272;-92
2021/05/29 11:52:08;;;;;;;4.53;2.88;;;;;;;13.49;64.63;96911.16;127883;1095;30799;-95
2021/05/29 11:54:40;;;;;;;3.57;2.70;;;;;;;13.56;61.69;96894.83;127871;1101;30891;-94
2021/05/29 11:57:10;;;;;;;5.15;3.15;;;;;;;13.51;63.08;96893.03;127861;1101;29053;-92
2021/05/29 11:59:40;;;;;;;4.35;2.80;;;;;;;13.57;62.48;96891.87;127912;1101;34968;-95
2021/05/29 12:02:10;;;;;;;6.13;3.48;;;;;;;13.47;62.72;96886.69;127829;1100;31226;-96
2021/05/29 12:04:41;;;;;;;3.75;2.80;;;;;;;13.67;63.21;96896.25;127856;1101;27632;-95